Time;durP1;ratioP1;P1;durP2;ratioP2;P2;SDS_P1;SDS_P2;PMS_P1;PMS_P2;Temp;Humidity;BMP_temperature;BMP_pressure;BME280_temperature;BME280_humidity;BME280_pressure;Samples;Min_cycle;Max_cycle;Signal;HPM_P1;HPM_P2
2023/12/26 00:01:54;;;;;;;1.40;0.50;;;11.20;99.90;;;;;;10354481;28;20481;-74
2023/12/26 00:06:55;;;;;;;1.23;0.50;;;11.20;99.90;;;;;;10351708;28;20485;-74
2023/12/26 00:11:55;;;;;;;0.98;0.40;;;11.20;99.90;;;;;;10351489;28;20098;-74
2023/12/26 00:16:56;;;;;;;0.98;0.40;;;11.20;99.90;;;;;;10353628;28;20401;-74
2023/12/26 00:21:57;;;;;;;1.38;0.43;;;11.20;99.90;;;;;;10355509;28;20036;-74
2023/12/26 00:26:57;;;;;;;0.82;0.52;;;11.20;99.90;;;;;;10336888;28;20036;-74
2023/12/26 00:31:58;;;;;;;0.30;0.30;;;11.20;99.90;;;;;;10351936;28;20056;-74
2023/12/26 00:36:59;;;;;;;1.40;0.50;;;11.20;99.90;;;;;;10351466;28;20430;-74
2023/12/26 00:41:59;;;;;;;0.55;0.32;;;11.20;99.90;;;;;;10349438;28;20030;-74
2023/12/26 00:47:00;;;;;;;1.00;0.40;;;11.20;99.90;;;;;;10350274;28;20462;-74
2023/12/26 00:52:00;;;;;;;0.63;0.40;;;11.20;99.90;;;;;;10353727;28;20152;-74
2023/12/26 00:57:02;;;;;;;0.70;0.45;;;11.20;99.90;;;;;;10346817;28;20484;-74
2023/12/26 01:02:03;;;;;;;0.35;0.30;;;11.20;99.90;;;;;;10354709;28;20381;-74
2023/12/26 01:07:05;;;;;;;0.93;0.40;;;11.20;99.90;;;;;;10349477;28;20022;-74
2023/12/26 01:12:06;;;;;;;0.75;0.40;;;11.20;99.90;;;;;;10354636;28;20026;-74
2023/12/26 01:17:07;;;;;;;0.65;0.38;;;11.20;99.90;;;;;;10349679;28;20037;-74
2023/12/26 01:22:08;;;;;;;0.40;0.30;;;11.30;99.90;;;;;;10359827;28;20030;-74
2023/12/26 01:27:08;;;;;;;0.68;0.40;;;11.20;99.90;;;;;;10337160;28;20029;-74
2023/12/26 01:32:09;;;;;;;0.43;0.43;;;11.20;99.90;;;;;;10357661;28;20464;-74
2023/12/26 01:37:10;;;;;;;0.70;0.40;;;11.20;99.90;;;;;;10356100;28;20267;-74
2023/12/26 01:42:10;;;;;;;2.22;0.40;;;11.20;99.90;;;;;;10358635;28;20030;-74
2023/12/26 01:47:12;;;;;;;0.55;0.30;;;11.20;99.90;;;;;;10352860;28;20116;-74
2023/12/26 01:52:16;;;;;;;1.98;0.52;;;11.20;99.90;;;;;;10355364;28;20026;-73
2023/12/26 01:57:17;;;;;;;0.95;0.35;;;11.20;99.90;;;;;;10352568;28;20034;-73
2023/12/26 02:02:18;;;;;;;0.57;0.40;;;11.20;99.90;;;;;;10358101;28;20026;-73
2023/12/26 02:07:19;;;;;;;1.08;0.40;;;11.20;99.90;;;;;;10354040;28;20026;-73
2023/12/26 02:12:20;;;;;;;0.85;0.30;;;11.20;99.90;;;;;;10351803;28;20029;-73
2023/12/26 02:17:25;;;;;;;0.57;0.55;;;11.20;99.90;;;;;;10350751;28;20053;-73
2023/12/26 02:22:26;;;;;;;1.77;0.40;;;11.20;99.90;;;;;;10351618;28;20128;-73
2023/12/26 02:27:31;;;;;;;1.10;0.40;;;11.20;99.90;;;;;;10352495;28;20057;-73
2023/12/26 02:32:34;;;;;;;1.55;0.43;;;11.20;99.90;;;;;;10354213;28;20468;-74
2023/12/26 02:37:37;;;;;;;0.65;0.30;;;11.20;99.90;;;;;;10358411;28;20129;-74
2023/12/26 02:42:37;;;;;;;1.20;0.30;;;11.20;99.90;;;;;;10350496;28;20121;-74
2023/12/26 02:47:38;;;;;;;1.15;0.47;;;11.20;99.90;;;;;;10335049;28;20419;-74
2023/12/26 02:52:39;;;;;;;0.73;0.30;;;11.20;99.90;;;;;;10349187;28;20501;-74
2023/12/26 02:57:40;;;;;;;2.28;0.60;;;11.20;99.90;;;;;;10353488;28;20092;-74
2023/12/26 03:02:41;;;;;;;1.15;0.30;;;11.10;99.90;;;;;;10351155;28;20394;-74
2023/12/26 03:07:42;;;;;;;1.85;0.50;;;11.20;99.90;;;;;;10350047;28;20030;-74
2023/12/26 03:12:42;;;;;;;2.80;0.55;;;11.10;99.90;;;;;;10348552;28;20463;-74
2023/12/26 03:17:43;;;;;;;2.15;0.68;;;11.10;99.90;;;;;;10351587;28;20061;-74
2023/12/26 03:22:44;;;;;;;2.17;0.70;;;11.10;99.90;;;;;;10350868;28;20037;-74
2023/12/26 03:27:44;;;;;;;0.60;0.30;;;11.10;99.90;;;;;;10352437;28;20018;-74
2023/12/26 03:32:45;;;;;;;1.38;0.70;;;11.10;99.90;;;;;;10348690;28;20029;-74
2023/12/26 03:37:46;;;;;;;1.42;0.40;;;11.10;99.90;;;;;;10351746;28;20034;-74
2023/12/26 03:42:47;;;;;;;0.70;0.50;;;11.10;99.90;;;;;;10352984;28;20026;-74
2023/12/26 03:47:48;;;;;;;1.73;0.50;;;11.10;99.90;;;;;;10356958;28;20030;-74
2023/12/26 03:52:49;;;;;;;0.90;0.30;;;11.10;99.90;;;;;;10352478;28;20021;-74
2023/12/26 03:57:49;;;;;;;1.05;0.38;;;11.10;99.90;;;;;;10347223;28;20045;-74
2023/12/26 04:02:50;;;;;;;2.80;0.50;;;11.00;99.90;;;;;;10354759;28;20528;-74
2023/12/26 04:07:50;;;;;;;2.03;0.50;;;11.00;99.90;;;;;;10354844;28;20017;-74
2023/12/26 04:12:51;;;;;;;4.07;0.70;;;11.00;99.90;;;;;;10352485;28;20041;-74
2023/12/26 04:17:52;;;;;;;0.85;0.40;;;11.00;99.90;;;;;;10355972;28;20600;-74
2023/12/26 04:22:52;;;;;;;1.40;0.55;;;11.00;99.90;;;;;;10352825;28;20034;-74
2023/12/26 04:27:54;;;;;;;1.35;0.45;;;10.90;99.90;;;;;;10348171;28;20034;-74
2023/12/26 04:32:56;;;;;;;1.92;0.40;;;10.90;99.90;;;;;;10352144;28;20021;-74
2023/12/26 04:37:56;;;;;;;3.42;0.73;;;10.90;99.90;;;;;;10351201;28;20066;-73
2023/12/26 04:43:02;;;;;;;3.72;0.82;;;10.90;99.90;;;;;;10349716;28;20030;-74
2023/12/26 04:48:07;;;;;;;2.70;1.27;;;10.90;99.90;;;;;;10356250;28;20044;-74
2023/12/26 04:53:10;;;;;;;3.75;0.40;;;10.90;99.90;;;;;;10354948;28;20025;-74
2023/12/26 04:58:10;;;;;;;0.70;0.40;;;10.80;99.90;;;;;;10369039;28;20018;-74
2023/12/26 05:03:11;;;;;;;4.57;0.60;;;10.80;99.90;;;;;;10360101;28;20235;-74
2023/12/26 05:08:12;;;;;;;3.65;0.77;;;10.80;99.90;;;;;;10363459;28;20030;-74
2023/12/26 05:13:12;;;;;;;2.50;0.63;;;10.80;99.90;;;;;;10354066;28;20026;-74
2023/12/26 05:18:13;;;;;;;3.10;0.60;;;10.80;99.90;;;;;;10354382;28;20038;-73
2023/12/26 05:23:14;;;;;;;0.80;0.45;;;10.80;99.90;;;;;;10352651;28;20026;-73
2023/12/26 05:28:14;;;;;;;2.90;0.70;;;10.80;99.90;;;;;;10355579;28;20026;-73
2023/12/26 05:33:15;;;;;;;1.00;0.40;;;10.70;99.90;;;;;;10355175;28;20436;-73
2023/12/26 05:38:15;;;;;;;3.70;0.57;;;10.70;99.90;;;;;;10361786;28;20116;-73
2023/12/26 05:43:16;;;;;;;2.38;0.50;;;10.70;99.90;;;;;;10359476;28;20512;-73
2023/12/26 05:48:17;;;;;;;2.38;0.50;;;10.70;99.90;;;;;;10358422;28;20038;-73
2023/12/26 05:53:17;;;;;;;1.92;0.63;;;10.70;99.90;;;;;;10356386;28;20057;-73
2023/12/26 05:58:18;;;;;;;1.95;0.73;;;10.70;99.90;;;;;;10358287;28;20158;-73
2023/12/26 06:03:19;;;;;;;3.28;0.77;;;10.70;99.90;;;;;;10360340;28;20500;-73
2023/12/26 06:08:20;;;;;;;4.85;0.90;;;10.70;99.90;;;;;;10354487;28;20061;-73
2023/12/26 06:13:21;;;;;;;3.15;0.50;;;10.70;99.90;;;;;;10357957;28;20435;-73
2023/12/26 06:18:21;;;;;;;2.30;0.60;;;10.70;99.90;;;;;;10352252;28;20033;-73
2023/12/26 06:23:22;;;;;;;2.63;0.70;;;10.70;99.90;;;;;;10356604;28;20030;-73
2023/12/26 06:28:23;;;;;;;3.47;0.55;;;10.70;99.90;;;;;;10356699;28;20032;-73
2023/12/26 06:33:24;;;;;;;1.75;0.52;;;10.70;99.90;;;;;;10340875;28;20390;-73
2023/12/26 06:38:25;;;;;;;4.78;0.63;;;10.70;99.90;;;;;;10357188;28;20041;-73
2023/12/26 06:43:25;;;;;;;2.53;0.82;;;10.70;99.90;;;;;;10354448;28;20048;-73
2023/12/26 06:48:26;;;;;;;4.25;0.90;;;10.70;99.90;;;;;;10359823;28;20034;-73
2023/12/26 06:53:26;;;;;;;2.53;0.90;;;10.70;99.90;;;;;;10349413;28;20489;-73
2023/12/26 06:58:27;;;;;;;4.65;0.52;;;10.60;99.90;;;;;;10354348;28;20022;-73
2023/12/26 07:03:28;;;;;;;3.20;0.60;;;10.60;99.90;;;;;;10332132;28;20110;-73
2023/12/26 07:08:28;;;;;;;8.10;1.30;;;10.60;99.90;;;;;;10352811;28;20467;-73
2023/12/26 07:13:29;;;;;;;4.80;1.17;;;10.60;99.90;;;;;;10352425;28;20040;-73
2023/12/26 07:18:30;;;;;;;3.38;0.95;;;10.60;99.90;;;;;;10353641;28;20515;-73
2023/12/26 07:23:30;;;;;;;2.97;0.60;;;10.60;99.90;;;;;;10357586;28;20034;-73
2023/12/26 07:28:31;;;;;;;6.07;1.52;;;10.60;99.90;;;;;;10352083;28;20029;-74
2023/12/26 07:33:31;;;;;;;3.95;0.80;;;10.60;99.90;;;;;;10348665;28;20072;-74
2023/12/26 07:38:32;;;;;;;4.97;1.23;;;10.60;99.90;;;;;;10346217;28;20052;-74
2023/12/26 07:43:33;;;;;;;2.90;0.68;;;10.60;99.90;;;;;;10347769;28;20019;-74
2023/12/26 07:48:34;;;;;;;4.57;0.70;;;10.60;99.90;;;;;;10352951;28;20034;-74
2023/12/26 07:53:34;;;;;;;2.25;0.70;;;10.60;99.90;;;;;;10345843;28;20031;-74
2023/12/26 07:58:35;;;;;;;6.10;1.17;;;10.60;99.90;;;;;;10346807;28;20050;-74
2023/12/26 08:03:36;;;;;;;2.00;0.57;;;10.60;99.90;;;;;;10347502;28;20474;-74
2023/12/26 08:08:36;;;;;;;2.75;0.70;;;10.60;99.90;;;;;;10355254;28;20164;-74
2023/12/26 08:13:37;;;;;;;1.58;0.60;;;10.60;99.90;;;;;;10351099;28;20614;-74
2023/12/26 08:18:37;;;;;;;4.82;0.82;;;10.60;99.90;;;;;;10354732;28;20707;-74
2023/12/26 08:23:38;;;;;;;4.22;0.98;;;10.60;99.90;;;;;;10350007;28;20504;-74
2023/12/26 08:28:39;;;;;;;5.13;0.88;;;10.60;99.90;;;;;;10346240;28;20033;-75
2023/12/26 08:33:39;;;;;;;6.00;1.95;;;10.60;99.90;;;;;;10354001;28;20033;-74
2023/12/26 08:38:41;;;;;;;2.45;0.63;;;10.60;99.90;;;;;;10355078;28;20041;-75
2023/12/26 08:43:41;;;;;;;2.53;0.88;;;10.60;99.90;;;;;;10350147;28;20034;-75
2023/12/26 08:48:42;;;;;;;9.35;2.55;;;10.60;99.90;;;;;;10349071;28;20563;-75
2023/12/26 08:53:43;;;;;;;2.35;0.80;;;10.60;99.90;;;;;;10350788;28;20266;-75
2023/12/26 08:58:43;;;;;;;7.07;1.13;;;10.60;99.90;;;;;;10350048;28;20035;-75
2023/12/26 09:03:44;;;;;;;4.75;0.90;;;10.60;99.90;;;;;;10346469;28;20539;-75
2023/12/26 09:08:45;;;;;;;4.03;0.80;;;10.60;99.90;;;;;;10354963;28;20017;-75
2023/12/26 09:13:46;;;;;;;8.73;1.33;;;10.60;99.90;;;;;;10347458;28;20187;-75
2023/12/26 09:18:47;;;;;;;2.17;0.80;;;10.60;99.90;;;;;;10346568;28;20527;-75
2023/12/26 09:23:48;;;;;;;6.07;1.10;;;10.60;99.90;;;;;;10348402;28;20052;-75
2023/12/26 09:28:49;;;;;;;4.55;0.95;;;10.60;99.90;;;;;;10349938;28;20028;-75
2023/12/26 09:33:49;;;;;;;5.70;0.80;;;10.60;99.90;;;;;;10351415;28;20393;-74
2023/12/26 09:38:50;;;;;;;5.55;1.02;;;10.60;99.90;;;;;;10351175;28;20413;-74
2023/12/26 09:43:51;;;;;;;8.20;1.05;;;10.60;99.90;;;;;;10353818;28;20489;-75
2023/12/26 09:48:52;;;;;;;3.33;1.00;;;10.60;99.90;;;;;;10361609;28;20030;-74
2023/12/26 09:53:57;;;;;;;2.42;1.02;;;10.60;99.90;;;;;;10358613;28;20033;-74
2023/12/26 09:59:01;;;;;;;3.80;1.17;;;10.60;99.90;;;;;;10365454;28;20298;-75
2023/12/26 10:04:03;;;;;;;6.03;1.10;;;10.60;99.90;;;;;;10355280;28;20218;-74
2023/12/26 10:09:04;;;;;;;9.13;1.30;;;10.70;99.90;;;;;;10357681;28;20113;-79
2023/12/26 10:14:07;;;;;;;4.60;1.30;;;10.80;99.90;;;;;;10358718;28;20051;-75
2023/12/26 10:19:12;;;;;;;5.63;1.15;;;10.80;99.90;;;;;;10360260;28;20029;-74
2023/12/26 10:24:13;;;;;;;3.78;1.10;;;10.80;99.90;;;;;;10355337;28;20022;-74
2023/12/26 10:29:14;;;;;;;6.30;1.20;;;10.80;99.90;;;;;;10360514;28;20045;-74
2023/12/26 10:34:18;;;;;;;6.00;1.45;;;10.80;99.90;;;;;;10356034;28;20033;-74
2023/12/26 10:39:18;;;;;;;2.50;0.90;;;10.80;99.90;;;;;;10356851;28;20041;-74
2023/12/26 10:44:20;;;;;;;4.90;1.13;;;10.90;99.90;;;;;;10352614;28;20432;-74
2023/12/26 10:49:26;;;;;;;6.68;1.45;;;10.90;99.90;;;;;;10354936;28;20072;-74
2023/12/26 10:54:27;;;;;;;5.95;1.30;;;10.90;99.90;;;;;;10348692;28;20523;-74
2023/12/26 13:52:56;;;;;;;5.75;1.55;;;10.80;99.90;;;;;;10360193;28;20120;-73
2023/12/26 13:58:34;;;;;;;5.95;1.45;;;10.80;99.90;;;;;;10352048;28;20058;-73
2023/12/26 14:04:13;;;;;;;6.73;1.40;;;10.80;99.90;;;;;;10356870;28;20485;-73
2023/12/26 14:09:32;;;;;;;;;;;10.80;99.90;;;;;;10358336;28;20291;-73
2023/12/26 14:15:11;;;;;;;3.30;0.90;;;10.80;99.90;;;;;;10355908;28;19952;-73
2023/12/26 14:20:30;;;;;;;;;;;10.80;99.90;;;;;;10365702;28;20042;-73
2023/12/26 14:25:49;;;;;;;;;;;10.80;99.90;;;;;;10344398;28;20312;-74
2023/12/26 14:31:08;;;;;;;;;;;10.80;99.90;;;;;;10357458;28;19917;-73
2023/12/26 14:36:46;;;;;;;4.75;0.80;;;10.70;99.90;;;;;;10358110;28;19918;-73
2023/12/26 14:42:24;;;;;;;4.10;1.20;;;10.70;99.90;;;;;;10358262;28;20034;-73
2023/12/26 14:48:03;;;;;;;5.53;1.37;;;10.70;99.90;;;;;;10357079;28;20038;-73
2023/12/26 14:53:40;;;;;;;3.72;0.93;;;10.70;99.90;;;;;;10361982;28;20433;-73
2023/12/26 14:59:18;;;;;;;1.73;0.80;;;10.70;99.90;;;;;;10355811;28;20110;-73
2023/12/26 15:04:26;;;;;;;1.93;0.80;;;10.70;99.90;;;;;;10359138;28;20038;-73
2023/12/26 15:09:28;;;;;;;2.75;0.90;;;10.70;99.90;;;;;;10358640;28;20118;-73
2023/12/26 15:14:29;;;;;;;1.98;0.60;;;10.60;99.90;;;;;;10358007;28;20080;-73
2023/12/26 15:19:30;;;;;;;3.92;1.08;;;10.60;99.90;;;;;;10341021;28;20029;-73
2023/12/26 15:24:31;;;;;;;1.30;0.77;;;10.60;99.90;;;;;;10353506;28;20034;-74
2023/12/26 15:29:31;;;;;;;1.75;0.85;;;10.60;99.90;;;;;;10342989;28;20034;-73
2023/12/26 15:34:32;;;;;;;5.65;0.93;;;10.60;99.90;;;;;;10353370;28;20034;-73
2023/12/26 15:39:33;;;;;;;5.88;1.13;;;10.60;99.90;;;;;;10352210;28;20508;-73
2023/12/26 15:44:33;;;;;;;3.47;0.90;;;10.60;99.90;;;;;;10355792;28;20068;-72
2023/12/26 15:49:34;;;;;;;4.18;1.08;;;10.50;99.90;;;;;;10354046;28;20044;-73
2023/12/26 15:54:35;;;;;;;3.28;0.80;;;10.60;99.90;;;;;;10348824;28;20034;-73
2023/12/26 15:59:35;;;;;;;3.97;0.88;;;10.50;99.90;;;;;;10356877;28;20326;-73
2023/12/26 16:04:36;;;;;;;3.67;0.73;;;10.50;99.90;;;;;;10356162;28;20038;-73
2023/12/26 16:09:37;;;;;;;1.98;0.75;;;10.50;99.90;;;;;;10349762;28;20048;-73
2023/12/26 16:14:38;;;;;;;3.50;1.58;;;10.50;99.90;;;;;;10356697;28;20101;-73
2023/12/26 16:19:42;;;;;;;4.25;1.20;;;10.40;99.90;;;;;;10348178;28;20034;-73
2023/12/26 16:24:43;;;;;;;2.22;0.90;;;10.50;99.90;;;;;;10353938;28;20049;-73
2023/12/26 16:29:44;;;;;;;4.90;1.08;;;10.40;99.90;;;;;;10347660;28;20089;-73
2023/12/26 16:34:44;;;;;;;4.90;0.95;;;10.40;99.90;;;;;;10352640;28;20030;-73
2023/12/26 16:39:45;;;;;;;2.50;1.00;;;10.40;99.90;;;;;;10349638;28;20036;-73
2023/12/26 16:44:50;;;;;;;4.30;1.00;;;10.40;99.90;;;;;;10354991;28;20029;-73
2023/12/26 16:49:51;;;;;;;3.00;1.15;;;10.40;99.90;;;;;;10354788;28;20006;-74
2023/12/26 16:54:54;;;;;;;2.42;1.00;;;10.40;99.90;;;;;;10357067;28;20092;-74
2023/12/26 16:59:55;;;;;;;2.45;1.10;;;10.30;99.90;;;;;;10350134;28;20021;-74
2023/12/26 17:04:55;;;;;;;2.53;1.05;;;10.30;99.90;;;;;;10355751;28;20034;-73
2023/12/26 17:09:56;;;;;;;3.90;1.05;;;10.30;99.90;;;;;;10363256;28;20697;-73
2023/12/26 17:14:57;;;;;;;4.43;1.15;;;10.30;99.90;;;;;;10341808;28;20033;-75
2023/12/26 17:19:57;;;;;;;2.10;0.88;;;10.30;99.90;;;;;;10368597;28;20026;-75
2023/12/26 17:24:58;;;;;;;4.70;1.10;;;10.30;99.90;;;;;;10357994;28;20041;-73
2023/12/26 17:29:58;;;;;;;2.90;0.95;;;10.30;99.90;;;;;;10351971;28;20029;-73
2023/12/26 17:35:00;;;;;;;3.88;1.00;;;10.30;99.90;;;;;;10360921;28;20044;-73
2023/12/26 17:40:01;;;;;;;5.53;0.93;;;10.30;99.90;;;;;;10358099;28;20058;-73
2023/12/26 17:45:03;;;;;;;3.38;0.98;;;10.20;99.90;;;;;;10362317;28;20354;-73
2023/12/26 17:50:03;;;;;;;3.35;0.90;;;10.20;99.90;;;;;;10359857;28;20393;-73
2023/12/26 17:55:04;;;;;;;1.45;0.93;;;10.20;99.90;;;;;;10358885;28;20034;-73
2023/12/26 18:00:06;;;;;;;6.35;1.60;;;10.20;99.90;;;;;;10350242;28;20065;-76
2023/12/26 18:05:07;;;;;;;2.65;1.00;;;10.20;99.90;;;;;;10355018;28;20117;-77
2023/12/26 18:10:08;;;;;;;2.13;0.93;;;10.20;99.90;;;;;;10334864;28;20010;-75
2023/12/26 18:15:09;;;;;;;4.07;1.35;;;10.20;99.90;;;;;;10353190;28;20064;-74
2023/12/26 18:20:10;;;;;;;2.72;1.08;;;10.20;99.90;;;;;;10351654;28;20022;-74
2023/12/26 18:25:11;;;;;;;3.00;1.00;;;10.20;99.90;;;;;;10351954;28;20030;-74
2023/12/26 18:30:12;;;;;;;5.15;1.10;;;10.10;99.90;;;;;;10360253;28;20538;-73
2023/12/26 18:35:13;;;;;;;3.17;1.00;;;10.20;99.90;;;;;;10355664;28;20038;-73
2023/12/26 18:40:13;;;;;;;1.70;1.08;;;10.20;99.90;;;;;;10353983;28;20060;-74
2023/12/26 18:45:14;;;;;;;5.05;1.20;;;10.20;99.90;;;;;;10336438;28;20033;-74
2023/12/26 18:50:15;;;;;;;1.83;1.23;;;10.10;99.90;;;;;;10346857;28;20057;-74
2023/12/26 18:55:16;;;;;;;4.93;0.90;;;10.10;99.90;;;;;;10354886;28;20044;-75
2023/12/26 19:00:17;;;;;;;2.92;1.30;;;10.10;99.90;;;;;;10352958;28;20045;-74
2023/12/26 19:05:19;;;;;;;5.20;1.40;;;10.10;99.90;;;;;;10353765;28;20057;-75
2023/12/26 19:10:20;;;;;;;4.70;1.38;;;10.00;99.90;;;;;;10356474;28;20088;-74
2023/12/26 19:15:21;;;;;;;3.08;1.50;;;10.00;99.90;;;;;;10351241;28;20099;-74
2023/12/26 19:20:22;;;;;;;4.82;1.48;;;10.00;99.90;;;;;;10352626;28;20033;-74
2023/12/26 19:25:23;;;;;;;5.57;1.33;;;9.90;99.90;;;;;;10355413;28;20048;-74
2023/12/26 19:30:26;;;;;;;4.10;1.42;;;10.00;99.90;;;;;;10353123;28;20018;-74
2023/12/26 19:35:27;;;;;;;4.70;1.40;;;9.90;99.90;;;;;;10351412;28;20034;-74
2023/12/26 19:40:27;;;;;;;7.78;1.33;;;9.90;99.90;;;;;;10349670;28;20033;-73
2023/12/26 19:45:28;;;;;;;5.30;1.42;;;9.90;99.90;;;;;;10343136;28;20087;-75
2023/12/26 19:50:38;;;;;;;4.32;1.55;;;9.90;99.90;;;;;;10354261;28;20014;-75
2023/12/26 19:55:38;;;;;;;3.42;1.55;;;9.90;99.90;;;;;;10349404;28;20029;-75
2023/12/26 20:00:39;;;;;;;2.72;1.48;;;9.80;99.90;;;;;;10357080;28;20537;-76
2023/12/26 20:05:40;;;;;;;4.82;1.42;;;9.80;99.90;;;;;;10352366;28;20026;-75
2023/12/26 20:10:40;;;;;;;4.75;1.38;;;9.80;99.90;;;;;;10351167;28;20034;-75
2023/12/26 20:15:42;;;;;;;5.45;1.40;;;9.80;99.90;;;;;;10353620;28;20512;-75
2023/12/26 20:20:42;;;;;;;5.03;1.45;;;9.80;99.90;;;;;;10352466;28;20034;-75
2023/12/26 20:25:43;;;;;;;5.78;2.20;;;9.70;99.90;;;;;;10356098;28;20079;-75
2023/12/26 20:30:43;;;;;;;2.85;1.55;;;9.70;99.90;;;;;;10353940;28;20029;-75
2023/12/26 20:35:44;;;;;;;5.32;1.92;;;9.70;99.90;;;;;;10351977;28;20022;-75
2023/12/26 20:40:45;;;;;;;9.00;1.70;;;9.70;99.90;;;;;;10352895;28;20045;-75
2023/12/26 20:45:45;;;;;;;4.32;1.52;;;9.70;99.90;;;;;;10351054;28;20109;-75
2023/12/26 20:50:47;;;;;;;3.65;1.60;;;9.60;99.90;;;;;;10351595;28;20018;-75
2023/12/26 20:55:51;;;;;;;7.55;1.70;;;9.60;99.90;;;;;;10347682;28;20886;-75
2023/12/26 21:00:51;;;;;;;4.43;1.98;;;9.60;99.90;;;;;;10354005;28;20374;-75
2023/12/26 21:05:52;;;;;;;4.00;1.67;;;9.60;99.90;;;;;;10351400;28;20038;-75
2023/12/26 21:10:52;;;;;;;3.75;2.10;;;9.60;99.90;;;;;;10350809;28;20080;-75
2023/12/26 21:15:53;;;;;;;8.38;2.22;;;9.50;99.90;;;;;;10348314;28;20030;-75
2023/12/26 21:20:56;;;;;;;5.63;1.77;;;9.50;99.90;;;;;;10354769;28;20384;-75
2023/12/26 21:26:18;;;;;;;6.45;1.85;;;9.50;99.90;;;;;;10353190;28;20030;-75
2023/12/26 21:31:19;;;;;;;5.78;1.98;;;9.50;99.90;;;;;;10353762;28;20026;-75
2023/12/26 21:36:20;;;;;;;4.25;1.90;;;9.50;99.90;;;;;;10355249;28;20041;-75
2023/12/26 21:41:21;;;;;;;4.47;1.58;;;9.40;99.90;;;;;;10355537;28;20042;-75
2023/12/26 21:46:22;;;;;;;5.20;1.85;;;9.40;99.90;;;;;;10365474;28;20030;-75
2023/12/26 21:51:22;;;;;;;5.03;1.80;;;9.40;99.90;;;;;;10360379;28;20034;-75
2023/12/26 21:56:23;;;;;;;4.20;2.05;;;9.40;99.90;;;;;;10359474;28;20030;-75
2023/12/26 22:01:24;;;;;;;5.07;2.05;;;9.40;99.90;;;;;;10353834;28;20485;-75
2023/12/26 22:06:25;;;;;;;4.88;1.63;;;9.30;99.90;;;;;;10359536;28;20021;-75
2023/12/26 22:11:25;;;;;;;5.75;1.90;;;9.30;99.90;;;;;;10357218;28;20025;-75
2023/12/26 22:16:28;;;;;;;8.52;2.22;;;9.30;99.90;;;;;;10356254;28;20133;-75
2023/12/26 22:21:29;;;;;;;5.38;2.45;;;9.30;99.90;;;;;;10360072;28;20066;-75
2023/12/26 22:26:30;;;;;;;6.63;2.10;;;9.30;99.90;;;;;;10350968;28;20030;-75
2023/12/26 22:31:33;;;;;;;5.85;1.83;;;9.20;99.90;;;;;;10352972;28;20030;-75
2023/12/26 22:36:36;;;;;;;6.38;1.80;;;9.20;99.90;;;;;;10356242;28;20381;-75
2023/12/26 22:41:37;;;;;;;4.55;1.77;;;9.20;99.90;;;;;;10359033;28;20069;-75
2023/12/26 22:46:37;;;;;;;5.55;2.00;;;9.20;99.90;;;;;;10354845;28;20109;-75
2023/12/26 22:51:40;;;;;;;9.32;2.40;;;9.20;99.90;;;;;;10356950;28;20389;-75
2023/12/26 22:56:41;;;;;;;4.20;1.90;;;9.20;99.90;;;;;;10355787;28;20508;-75
2023/12/26 23:01:48;;;;;;;4.38;1.83;;;9.20;99.90;;;;;;10355873;28;20121;-75
2023/12/26 23:06:48;;;;;;;5.38;2.20;;;9.80;99.90;;;;;;10353162;28;20028;-76
2023/12/26 23:11:49;;;;;;;3.72;2.05;;;9.10;99.90;;;;;;10352222;28;20040;-76
2023/12/26 23:16:50;;;;;;;5.25;2.10;;;9.10;99.90;;;;;;10347073;28;20107;-76
2023/12/26 23:21:50;;;;;;;5.97;2.55;;;9.10;99.90;;;;;;10355242;28;20435;-76
2023/12/26 23:26:51;;;;;;;4.28;2.40;;;9.10;99.90;;;;;;10347991;28;20447;-76
2023/12/26 23:31:52;;;;;;;3.42;2.13;;;9.00;99.90;;;;;;10346555;28;20092;-76
2023/12/26 23:36:52;;;;;;;4.15;1.83;;;9.00;99.90;;;;;;10352651;28;20044;-76
2023/12/26 23:41:59;;;;;;;5.18;1.98;;;9.00;99.90;;;;;;10348206;28;20026;-76
2023/12/26 23:47:00;;;;;;;4.35;2.00;;;9.00;99.90;;;;;;10355056;28;20137;-76
2023/12/26 23:52:00;;;;;;;4.78;2.38;;;9.00;99.90;;;;;;10355696;28;20501;-76
2023/12/26 23:57:01;;;;;;;3.83;2.05;;;9.00;99.90;;;;;;10357338;28;20029;-76
